sensor_id;sensor_type;location;lat;lon;timestamp;pressure;altitude;pressure_sealevel;temperature;humidity
22964;BME280;11648;49.306;6.934;2023-04-27T00:01:09;98504.63;;;13.89;46.56
22964;BME280;11648;49.306;6.934;2023-04-27T00:03:37;98511.84;;;13.82;47.14
22964;BME280;11648;49.306;6.934;2023-04-27T00:06:05;98511.69;;;13.87;47.44
22964;BME280;11648;49.306;6.934;2023-04-27T00:08:31;98516.28;;;13.80;46.99
22964;BME280;11648;49.306;6.934;2023-04-27T00:10:59;98513.06;;;13.66;47.99
22964;BME280;11648;49.306;6.934;2023-04-27T00:13:26;98517.53;;;13.64;48.56
22964;BME280;11648;49.306;6.934;2023-04-27T00:15:53;98520.59;;;13.46;49.77
22964;BME280;11648;49.306;6.934;2023-04-27T00:18:20;98528.59;;;13.43;50.35
22964;BME280;11648;49.306;6.934;2023-04-27T00:20:46;98525.94;;;13.43;50.56
22964;BME280;11648;49.306;6.934;2023-04-27T00:23:13;98524.94;;;13.47;50.36
22964;BME280;11648;49.306;6.934;2023-04-27T00:25:40;98526.69;;;13.48;50.35
22964;BME280;11648;49.306;6.934;2023-04-27T00:28:07;98524.13;;;13.45;50.28
22964;BME280;11648;49.306;6.934;2023-04-27T00:30:33;98528.59;;;13.42;50.36
22964;BME280;11648;49.306;6.934;2023-04-27T00:33:01;98525.19;;;13.36;50.11
22964;BME280;11648;49.306;6.934;2023-04-27T00:35:28;98528.81;;;13.32;50.78
22964;BME280;11648;49.306;6.934;2023-04-27T00:37:57;98520.88;;;13.32;50.58
22964;BME280;11648;49.306;6.934;2023-04-27T00:40:23;98513.19;;;13.20;50.85
22964;BME280;11648;49.306;6.934;2023-04-27T00:42:51;98524.72;;;13.16;50.84
22964;BME280;11648;49.306;6.934;2023-04-27T00:45:18;98516.81;;;13.15;50.69
22964;BME280;11648;49.306;6.934;2023-04-27T00:47:44;98514.94;;;13.21;50.39
22964;BME280;11648;49.306;6.934;2023-04-27T00:50:11;98506.09;;;13.22;50.31
22964;BME280;11648;49.306;6.934;2023-04-27T00:52:38;98517.53;;;13.23;50.66
22964;BME280;11648;49.306;6.934;2023-04-27T00:55:05;98510.47;;;13.25;50.92
22964;BME280;11648;49.306;6.934;2023-04-27T00:57:32;98512.31;;;13.20;50.87
22964;BME280;11648;49.306;6.934;2023-04-27T01:00:00;98505.28;;;13.19;50.72
22964;BME280;11648;49.306;6.934;2023-04-27T01:02:28;98511.44;;;13.19;50.78
22964;BME280;11648;49.306;6.934;2023-04-27T01:04:55;98505.28;;;13.19;50.39
22964;BME280;11648;49.306;6.934;2023-04-27T01:07:26;98503.66;;;13.13;50.89
22964;BME280;11648;49.306;6.934;2023-04-27T01:09:53;98514.03;;;13.22;50.39
22964;BME280;11648;49.306;6.934;2023-04-27T01:12:19;98518.25;;;13.32;50.64
22964;BME280;11648;49.306;6.934;2023-04-27T01:14:47;98526.09;;;13.35;50.81
22964;BME280;11648;49.306;6.934;2023-04-27T01:17:14;98511.13;;;13.36;50.59
22964;BME280;11648;49.306;6.934;2023-04-27T01:19:41;98516.34;;;13.38;50.63
22964;BME280;11648;49.306;6.934;2023-04-27T01:22:08;98516.44;;;13.33;50.93
22964;BME280;11648;49.306;6.934;2023-04-27T01:24:36;98521.88;;;13.27;51.66
22964;BME280;11648;49.306;6.934;2023-04-27T01:27:04;98518.47;;;13.20;52.31
22964;BME280;11648;49.306;6.934;2023-04-27T01:29:31;98513.03;;;13.28;52.78
22964;BME280;11648;49.306;6.934;2023-04-27T01:31:58;98520.91;;;13.31;52.82
22964;BME280;11648;49.306;6.934;2023-04-27T01:34:24;98524.72;;;13.18;53.57
22964;BME280;11648;49.306;6.934;2023-04-27T01:36:51;98514.13;;;13.18;53.37
22964;BME280;11648;49.306;6.934;2023-04-27T01:39:20;98516.72;;;13.19;52.77
22964;BME280;11648;49.306;6.934;2023-04-27T01:41:47;98513.84;;;13.31;52.41
22964;BME280;11648;49.306;6.934;2023-04-27T01:44:13;98515.78;;;13.22;52.81
22964;BME280;11648;49.306;6.934;2023-04-27T01:46:40;98511.38;;;13.22;52.70
22964;BME280;11648;49.306;6.934;2023-04-27T01:49:07;98519.44;;;13.18;53.05
22964;BME280;11648;49.306;6.934;2023-04-27T01:51:34;98513.19;;;13.20;53.23
22964;BME280;11648;49.306;6.934;2023-04-27T01:54:01;98511.50;;;13.18;53.06
22964;BME280;11648;49.306;6.934;2023-04-27T01:56:27;98512.25;;;13.23;52.92
22964;BME280;11648;49.306;6.934;2023-04-27T01:58:54;98508.72;;;13.22;53.15
22964;BME280;11648;49.306;6.934;2023-04-27T02:01:21;98516.81;;;13.15;53.20
22964;BME280;11648;49.306;6.934;2023-04-27T02:03:48;98516.94;;;13.10;53.29
22964;BME280;11648;49.306;6.934;2023-04-27T02:06:15;98517.75;;;13.14;52.72
22964;BME280;11648;49.306;6.934;2023-04-27T02:08:42;98517.59;;;13.20;52.24
22964;BME280;11648;49.306;6.934;2023-04-27T02:11:08;98516.72;;;13.19;51.89
22964;BME280;11648;49.306;6.934;2023-04-27T02:13:35;98515.91;;;13.17;52.09
22964;BME280;11648;49.306;6.934;2023-04-27T02:16:03;98519.56;;;13.10;51.52
22964;BME280;11648;49.306;6.934;2023-04-27T02:18:31;98517.81;;;13.09;51.52
22964;BME280;11648;49.306;6.934;2023-04-27T02:20:59;98512.59;;;13.05;nan
22964;BME280;11648;49.306;6.934;2023-04-27T02:23:26;98509.94;;;13.06;51.11
22964;BME280;11648;49.306;6.934;2023-04-27T02:25:53;98507.38;;;13.02;50.47
22964;BME280;11648;49.306;6.934;2023-04-27T02:28:19;98505.53;;;13.05;50.37
22964;BME280;11648;49.306;6.934;2023-04-27T02:30:47;98509.88;;;13.08;50.40
22964;BME280;11648;49.306;6.934;2023-04-27T02:33:13;98517.81;;;13.09;51.27
22964;BME280;11648;49.306;6.934;2023-04-27T02:35:40;98514.28;;;13.09;51.83
22964;BME280;11648;49.306;6.934;2023-04-27T02:38:07;98518.66;;;13.11;52.10
22964;BME280;11648;49.306;6.934;2023-04-27T02:40:36;98521.47;;;13.02;53.40
22964;BME280;11648;49.306;6.934;2023-04-27T02:43:05;98528.63;;;12.96;53.76
22964;BME280;11648;49.306;6.934;2023-04-27T02:45:35;98527.91;;;12.87;54.44
22964;BME280;11648;49.306;6.934;2023-04-27T02:48:04;98533.31;;;12.80;54.79
22964;BME280;11648;49.306;6.934;2023-04-27T02:50:32;98523.81;;;12.71;55.43
22964;BME280;11648;49.306;6.934;2023-04-27T02:53:02;98536.16;;;12.69;55.38
22964;BME280;11648;49.306;6.934;2023-04-27T02:55:29;98532.63;;;12.70;55.25
22964;BME280;11648;49.306;6.934;2023-04-27T02:57:56;98526.41;;;12.73;55.02
22964;BME280;11648;49.306;6.934;2023-04-27T03:00:23;98536.06;;;12.75;55.02
22964;BME280;11648;49.306;6.934;2023-04-27T03:02:49;98535.16;;;12.78;55.32
22964;BME280;11648;49.306;6.934;2023-04-27T03:05:17;98532.41;;;12.82;55.38
22964;BME280;11648;49.306;6.934;2023-04-27T03:07:44;98531.56;;;12.80;55.21
22964;BME280;11648;49.306;6.934;2023-04-27T03:10:10;98528.31;;;12.65;55.55
22964;BME280;11648;49.306;6.934;2023-04-27T03:12:37;98530.06;;;12.66;55.44
22964;BME280;11648;49.306;6.934;2023-04-27T03:15:04;98527.41;;;12.67;54.50
22964;BME280;11648;49.306;6.934;2023-04-27T03:17:34;98526.41;;;12.73;54.46
22964;BME280;11648;49.306;6.934;2023-04-27T03:20:01;98519.31;;;12.76;54.47
22964;BME280;11648;49.306;6.934;2023-04-27T03:22:30;98525.47;;;12.77;54.89
22964;BME280;11648;49.306;6.934;2023-04-27T03:24:57;98519.34;;;12.75;55.19
22964;BME280;11648;49.306;6.934;2023-04-27T03:27:23;98521.06;;;12.77;54.81
22964;BME280;11648;49.306;6.934;2023-04-27T03:29:51;98514.91;;;12.75;55.46
22964;BME280;11648;49.306;6.934;2023-04-27T03:32:19;98514.91;;;12.77;55.08
22964;BME280;11648;49.306;6.934;2023-04-27T03:34:45;98515.94;;;12.68;55.03
22964;BME280;11648;49.306;6.934;2023-04-27T03:37:12;98510.84;;;12.59;54.47
22964;BME280;11648;49.306;6.934;2023-04-27T03:39:39;98506.38;;;12.61;54.60
22964;BME280;11648;49.306;6.934;2023-04-27T03:42:08;98506.44;;;12.60;54.25
22964;BME280;11648;49.306;6.934;2023-04-27T03:44:35;98511.78;;;12.55;53.84
22964;BME280;11648;49.306;6.934;2023-04-27T03:47:02;98510.09;;;12.51;54.39
22964;BME280;11648;49.306;6.934;2023-04-27T03:49:29;98515.44;;;12.48;54.45
22964;BME280;11648;49.306;6.934;2023-04-27T03:51:56;98516.31;;;12.47;54.33
22964;BME280;11648;49.306;6.934;2023-04-27T03:54:22;98509.41;;;12.40;54.49
22964;BME280;11648;49.306;6.934;2023-04-27T03:56:49;98521.72;;;12.39;55.18
22964;BME280;11648;49.306;6.934;2023-04-27T03:59:17;98523.53;;;12.39;55.36
22964;BME280;11648;49.306;6.934;2023-04-27T04:01:48;98533.34;;;12.31;55.56
22964;BME280;11648;49.306;6.934;2023-04-27T04:04:14;98523.91;;;12.16;56.13
22964;BME280;11648;49.306;6.934;2023-04-27T04:06:42;98520.31;;;12.20;56.32
22964;BME280;11648;49.306;6.934;2023-04-27T04:09:10;98527.41;;;12.17;56.11
22964;BME280;11648;49.306;6.934;2023-04-27T04:11:38;98522.22;;;12.11;56.21
22964;BME280;11648;49.306;6.934;2023-04-27T04:14:07;98531.06;;;12.08;56.63
22964;BME280;11648;49.306;6.934;2023-04-27T04:16:34;98524.91;;;12.08;56.51
22964;BME280;11648;49.306;6.934;2023-04-27T04:19:01;98525.06;;;11.97;57.03
22964;BME280;11648;49.306;6.934;2023-04-27T04:21:27;98528.53;;;12.01;56.94
22964;BME280;11648;49.306;6.934;2023-04-27T04:23:54;98522.38;;;12.00;56.76
22964;BME280;11648;49.306;6.934;2023-04-27T04:26:21;98523.34;;;11.96;56.95
22964;BME280;11648;49.306;6.934;2023-04-27T04:28:49;98525.84;;;12.04;56.83
22964;BME280;11648;49.306;6.934;2023-04-27T04:31:15;98522.25;;;12.08;56.73
22964;BME280;11648;49.306;6.934;2023-04-27T04:33:43;98524.97;;;12.05;55.74
22964;BME280;11648;49.306;6.934;2023-04-27T04:36:10;98532.97;;;11.99;56.16
22964;BME280;11648;49.306;6.934;2023-04-27T04:38:37;98531.28;;;11.96;55.21
22964;BME280;11648;49.306;6.934;2023-04-27T04:41:03;98529.41;;;12.03;55.43
22964;BME280;11648;49.306;6.934;2023-04-27T04:43:32;98530.88;;;12.19;54.94
22964;BME280;11648;49.306;6.934;2023-04-27T04:46:02;98534.41;;;12.18;53.01
22964;BME280;11648;49.306;6.934;2023-04-27T04:48:29;98531.69;;;12.24;54.08
22964;BME280;11648;49.306;6.934;2023-04-27T04:50:55;98535.09;;;12.32;54.31
22964;BME280;11648;49.306;6.934;2023-04-27T04:53:22;98536.81;;;12.33;55.04
22964;BME280;11648;49.306;6.934;2023-04-27T04:55:49;98546.41;;;12.37;55.87
22964;BME280;11648;49.306;6.934;2023-04-27T04:58:16;98548.94;;;12.43;55.84
22964;BME280;11648;49.306;6.934;2023-04-27T05:00:43;98550.44;;;12.59;55.86
22964;BME280;11648;49.306;6.934;2023-04-27T05:03:09;98558.19;;;12.70;55.82
22964;BME280;11648;49.306;6.934;2023-04-27T05:05:36;98557.25;;;12.72;55.10
22964;BME280;11648;49.306;6.934;2023-04-27T05:08:03;98555.28;;;12.83;55.11
22964;BME280;11648;49.306;6.934;2023-04-27T05:10:30;98546.47;;;12.84;54.26
22964;BME280;11648;49.306;6.934;2023-04-27T05:12:57;98554.25;;;12.92;54.33
22964;BME280;11648;49.306;6.934;2023-04-27T05:15:24;98556.84;;;12.94;55.02
22964;BME280;11648;49.306;6.934;2023-04-27T05:17:50;98556.81;;;12.97;54.82
22964;BME280;11648;49.306;6.934;2023-04-27T05:20:19;98558.66;;;12.92;55.09
22964;BME280;11648;49.306;6.934;2023-04-27T05:22:46;98563.97;;;12.90;54.79
22964;BME280;11648;49.306;6.934;2023-04-27T05:25:13;98565.84;;;12.83;54.51
22964;BME280;11648;49.306;6.934;2023-04-27T05:27:39;98567.53;;;12.87;54.47
22964;BME280;11648;49.306;6.934;2023-04-27T05:30:07;98566.78;;;12.79;53.24
22964;BME280;11648;49.306;6.934;2023-04-27T05:32:33;98567.66;;;12.80;53.30
22964;BME280;11648;49.306;6.934;2023-04-27T05:35:02;98558.66;;;12.92;52.61
22964;BME280;11648;49.306;6.934;2023-04-27T05:37:30;98562.19;;;12.92;52.69
22964;BME280;11648;49.306;6.934;2023-04-27T05:39:57;98565.59;;;12.97;52.88
22964;BME280;11648;49.306;6.934;2023-04-27T05:42:23;98564.00;;;13.36;53.32
22964;BME280;11648;49.306;6.934;2023-04-27T05:44:50;98567.03;;;13.98;51.22
22964;BME280;11648;49.306;6.934;2023-04-27T05:47:16;98554.34;;;14.50;48.84
22964;BME280;11648;49.306;6.934;2023-04-27T05:49:43;98551.72;;;15.15;47.96
22964;BME280;11648;49.306;6.934;2023-04-27T05:52:10;98543.81;;;15.75;46.02
22964;BME280;11648;49.306;6.934;2023-04-27T05:54:36;98543.25;;;15.93;45.36
22964;BME280;11648;49.306;6.934;2023-04-27T05:57:03;98539.38;;;16.03;44.67
22964;BME280;11648;49.306;6.934;2023-04-27T05:59:30;98541.66;;;16.42;44.39
22964;BME280;11648;49.306;6.934;2023-04-27T06:01:57;98537.72;;;16.81;43.66
22964;BME280;11648;49.306;6.934;2023-04-27T06:04:24;98532.44;;;17.04;42.41
22964;BME280;11648;49.306;6.934;2023-04-27T06:06:51;98532.09;;;17.38;41.72
22964;BME280;11648;49.306;6.934;2023-04-27T06:09:17;98530.25;;;17.87;41.63
22964;BME280;11648;49.306;6.934;2023-04-27T06:11:44;98529.16;;;18.57;40.19
22964;BME280;11648;49.306;6.934;2023-04-27T06:14:12;98528.00;;;19.05;39.60
22964;BME280;11648;49.306;6.934;2023-04-27T06:16:39;98526.78;;;19.12;38.85
22964;BME280;11648;49.306;6.934;2023-04-27T06:19:06;98524.41;;;19.46;38.33
22964;BME280;11648;49.306;6.934;2023-04-27T06:21:33;98520.03;;;19.83;36.91
22964;BME280;11648;49.306;6.934;2023-04-27T06:24:01;98515.53;;;20.02;36.37
22964;BME280;11648;49.306;6.934;2023-04-27T06:26:27;98512.84;;;20.20;35.27
22964;BME280;11648;49.306;6.934;2023-04-27T06:28:54;98517.56;;;20.51;35.38
22964;BME280;11648;49.306;6.934;2023-04-27T06:31:21;98522.56;;;20.93;33.69
22964;BME280;11648;49.306;6.934;2023-04-27T06:33:48;98517.91;;;21.14;33.09
22964;BME280;11648;49.306;6.934;2023-04-27T06:36:15;98518.69;;;21.16;31.79
22964;BME280;11648;49.306;6.934;2023-04-27T06:38:42;98516.75;;;22.01;31.67
22964;BME280;11648;49.306;6.934;2023-04-27T06:41:08;98518.56;;;22.32;30.64
22964;BME280;11648;49.306;6.934;2023-04-27T06:43:36;98518.19;;;22.53;29.91
22964;BME280;11648;49.306;6.934;2023-04-27T06:46:05;98515.53;;;22.99;29.44
22964;BME280;11648;49.306;6.934;2023-04-27T06:48:31;98511.66;;;23.03;28.92
22964;BME280;11648;49.306;6.934;2023-04-27T06:50:58;98511.00;;;22.70;29.46
22964;BME280;11648;49.306;6.934;2023-04-27T06:53:25;98512.28;;;21.36;30.73
22964;BME280;11648;49.306;6.934;2023-04-27T06:55:52;98526.50;;;20.86;32.01
22964;BME280;11648;49.306;6.934;2023-04-27T06:58:19;98534.28;;;20.19;32.77
22964;BME280;11648;49.306;6.934;2023-04-27T07:00:45;98527.22;;;19.81;33.66
22964;BME280;11648;49.306;6.934;2023-04-27T07:03:12;98537.19;;;19.38;33.65
22964;BME280;11648;49.306;6.934;2023-04-27T07:05:40;98539.56;;;18.85;34.92
22964;BME280;11648;49.306;6.934;2023-04-27T07:08:06;98543.09;;;18.86;34.87
22964;BME280;11648;49.306;6.934;2023-04-27T07:10:34;98545.22;;;18.98;34.79
22964;BME280;11648;49.306;6.934;2023-04-27T07:13:01;98547.88;;;18.98;35.45
22964;BME280;11648;49.306;6.934;2023-04-27T07:15:29;98527.88;;;19.28;34.69
22964;BME280;11648;49.306;6.934;2023-04-27T07:17:56;98537.03;;;19.43;34.90
22964;BME280;11648;49.306;6.934;2023-04-27T07:20:23;98537.38;;;19.34;35.45
22964;BME280;11648;49.306;6.934;2023-04-27T07:22:50;98547.56;;;19.05;35.01
22964;BME280;11648;49.306;6.934;2023-04-27T07:25:17;98545.06;;;19.01;35.21
22964;BME280;11648;49.306;6.934;2023-04-27T07:27:45;98540.00;;;18.74;35.63
22964;BME280;11648;49.306;6.934;2023-04-27T07:30:12;98548.81;;;18.77;36.15
22964;BME280;11648;49.306;6.934;2023-04-27T07:32:40;98547.09;;;19.16;35.45
22964;BME280;11648;49.306;6.934;2023-04-27T07:35:09;98546.75;;;19.23;35.09
22964;BME280;11648;49.306;6.934;2023-04-27T07:37:36;98540.72;;;19.18;34.78
22964;BME280;11648;49.306;6.934;2023-04-27T07:40:04;98542.41;;;19.01;35.09
22964;BME280;11648;49.306;6.934;2023-04-27T07:42:39;98542.41;;;19.01;35.08
22964;BME280;11648;49.306;6.934;2023-04-27T07:45:08;98533.88;;;19.13;34.83
22964;BME280;11648;49.306;6.934;2023-04-27T07:47:35;98526.50;;;19.38;34.80
22964;BME280;11648;49.306;6.934;2023-04-27T07:50:02;98527.31;;;19.60;34.75
22964;BME280;11648;49.306;6.934;2023-04-27T07:52:30;98521.88;;;19.81;33.55
22964;BME280;11648;49.306;6.934;2023-04-27T07:54:56;98517.63;;;20.14;32.99
22964;BME280;11648;49.306;6.934;2023-04-27T07:57:23;98517.56;;;19.78;33.58
22964;BME280;11648;49.306;6.934;2023-04-27T07:59:50;98522.09;;;20.13;33.40
22964;BME280;11648;49.306;6.934;2023-04-27T08:02:17;98517.44;;;20.54;33.02
22964;BME280;11648;49.306;6.934;2023-04-27T08:04:46;98513.56;;;20.60;32.38
22964;BME280;11648;49.306;6.934;2023-04-27T08:07:18;98520.72;;;20.59;33.04
22964;BME280;11648;49.306;6.934;2023-04-27T08:09:45;98530.31;;;20.63;32.47
22964;BME280;11648;49.306;6.934;2023-04-27T08:12:12;98526.00;;;19.88;31.79
22964;BME280;11648;49.306;6.934;2023-04-27T08:14:38;98523.53;;;20.02;31.77
22964;BME280;11648;49.306;6.934;2023-04-27T08:17:05;98525.78;;;19.73;32.72
22964;BME280;11648;49.306;6.934;2023-04-27T08:19:32;98526.50;;;19.96;32.72
22964;BME280;11648;49.306;6.934;2023-04-27T08:21:59;98518.19;;;20.20;32.62
22964;BME280;11648;49.306;6.934;2023-04-27T08:24:26;98516.91;;;20.10;33.05
22964;BME280;11648;49.306;6.934;2023-04-27T08:26:53;98515.34;;;20.23;32.16
22964;BME280;11648;49.306;6.934;2023-04-27T08:29:19;98518.91;;;20.43;32.60
22964;BME280;11648;49.306;6.934;2023-04-27T08:31:57;98526.41;;;20.70;32.48
22964;BME280;11648;49.306;6.934;2023-04-27T08:34:24;98513.03;;;20.16;32.38
22964;BME280;11648;49.306;6.934;2023-04-27T08:36:51;98511.13;;;20.55;32.03
22964;BME280;11648;49.306;6.934;2023-04-27T08:39:19;98503.97;;;20.56;31.59
22964;BME280;11648;49.306;6.934;2023-04-27T08:41:45;98502.16;;;20.91;31.43
22964;BME280;11648;49.306;6.934;2023-04-27T08:44:12;98506.88;;;21.03;31.28
22964;BME280;11648;49.306;6.934;2023-04-27T08:46:39;98502.75;;;21.47;31.42
22964;BME280;11648;49.306;6.934;2023-04-27T08:49:06;98505.72;;;21.58;30.73
22964;BME280;11648;49.306;6.934;2023-04-27T08:51:36;98509.47;;;22.03;30.21
22964;BME280;11648;49.306;6.934;2023-04-27T08:54:03;98498.09;;;23.20;30.08
22964;BME280;11648;49.306;6.934;2023-04-27T08:56:30;98483.75;;;23.78;28.74
22964;BME280;11648;49.306;6.934;2023-04-27T08:58:57;98481.81;;;24.35;28.51
22964;BME280;11648;49.306;6.934;2023-04-27T09:01:26;98475.00;;;24.69;27.29
22964;BME280;11648;49.306;6.934;2023-04-27T09:04:00;98468.00;;;25.43;27.22
22964;BME280;11648;49.306;6.934;2023-04-27T09:06:32;98459.72;;;25.59;25.81
22964;BME280;11648;49.306;6.934;2023-04-27T09:08:59;98466.81;;;25.85;26.26
22964;BME280;11648;49.306;6.934;2023-04-27T09:11:34;98463.41;;;26.07;26.24
22964;BME280;11648;49.306;6.934;2023-04-27T09:14:15;98469.63;;;26.44;26.33
22964;BME280;11648;49.306;6.934;2023-04-27T09:16:42;98463.06;;;27.29;25.09
22964;BME280;11648;49.306;6.934;2023-04-27T09:19:10;98467.28;;;28.22;24.73
22964;BME280;11648;49.306;6.934;2023-04-27T09:21:37;98462.16;;;28.08;23.99
22964;BME280;11648;49.306;6.934;2023-04-27T09:24:11;98454.44;;;28.35;22.11
22964;BME280;11648;49.306;6.934;2023-04-27T09:26:38;98449.91;;;28.24;22.08
22964;BME280;11648;49.306;6.934;2023-04-27T09:29:07;98453.66;;;27.79;22.77
22964;BME280;11648;49.306;6.934;2023-04-27T09:31:35;98460.28;;;28.19;22.62
22964;BME280;11648;49.306;6.934;2023-04-27T09:34:03;98466.59;;;28.52;22.75
22964;BME280;11648;49.306;6.934;2023-04-27T09:36:30;98468.50;;;28.61;22.07
22964;BME280;11648;49.306;6.934;2023-04-27T09:39:02;98459.50;;;28.71;21.38
22964;BME280;11648;49.306;6.934;2023-04-27T09:41:31;98464.94;;;28.71;20.83
22964;BME280;11648;49.306;6.934;2023-04-27T09:43:58;98467.78;;;28.70;21.44
22964;BME280;11648;49.306;6.934;2023-04-27T09:46:28;98471.28;;;29.34;20.43
22964;BME280;11648;49.306;6.934;2023-04-27T09:48:55;98478.31;;;29.97;21.61
22964;BME280;11648;49.306;6.934;2023-04-27T09:51:23;98464.81;;;30.26;20.40
22964;BME280;11648;49.306;6.934;2023-04-27T09:53:55;98455.25;;;31.56;20.05
22964;BME280;11648;49.306;6.934;2023-04-27T09:59:13;98448.88;;;33.79;18.60
22964;BME280;11648;49.306;6.934;2023-04-27T10:01:50;98438.97;;;35.51;16.23
22964;BME280;11648;49.306;6.934;2023-04-27T10:07:07;98450.25;;;34.99;15.57
22964;BME280;11648;49.306;6.934;2023-04-27T10:09:46;98449.94;;;35.02;16.26
22964;BME280;11648;49.306;6.934;2023-04-27T10:12:42;98446.72;;;36.95;14.65
22964;BME280;11648;49.306;6.934;2023-04-27T10:15:15;98447.88;;;36.47;16.24
22964;BME280;11648;49.306;6.934;2023-04-27T10:17:50;98444.28;;;36.15;16.24
22964;BME280;11648;49.306;6.934;2023-04-27T10:20:28;98447.63;;;34.57;16.98
22964;BME280;11648;49.306;6.934;2023-04-27T10:22:57;98447.78;;;33.20;17.75
22964;BME280;11648;49.306;6.934;2023-04-27T10:25:28;98460.34;;;32.78;18.70
22964;BME280;11648;49.306;6.934;2023-04-27T10:28:00;98457.19;;;32.55;19.09
22964;BME280;11648;49.306;6.934;2023-04-27T10:30:32;98454.63;;;32.09;18.41
22964;BME280;11648;49.306;6.934;2023-04-27T10:33:05;98444.13;;;30.34;19.02
22964;BME280;11648;49.306;6.934;2023-04-27T10:35:40;98446.59;;;30.85;19.28
22964;BME280;11648;49.306;6.934;2023-04-27T10:40:37;98438.19;;;31.91;18.32
22964;BME280;11648;49.306;6.934;2023-04-27T10:43:14;98441.69;;;31.27;19.07
22964;BME280;11648;49.306;6.934;2023-04-27T10:45:42;98441.59;;;31.75;18.74
22964;BME280;11648;49.306;6.934;2023-04-27T10:48:12;98447.78;;;32.85;18.90
22964;BME280;11648;49.306;6.934;2023-04-27T10:50:41;98445.66;;;34.17;17.86
22964;BME280;11648;49.306;6.934;2023-04-27T10:53:10;98425.97;;;36.08;16.69
22964;BME280;11648;49.306;6.934;2023-04-27T10:55:37;98417.28;;;36.35;15.50
22964;BME280;11648;49.306;6.934;2023-04-27T10:58:03;98415.88;;;37.53;15.02
22964;BME280;11648;49.306;6.934;2023-04-27T11:00:37;98419.38;;;37.91;15.16
22964;BME280;11648;49.306;6.934;2023-04-27T11:03:22;98400.09;;;38.92;13.75
22964;BME280;11648;49.306;6.934;2023-04-27T11:06:02;98397.25;;;39.28;14.13
22964;BME280;11648;49.306;6.934;2023-04-27T11:08:29;98397.00;;;39.50;13.76
22964;BME280;11648;49.306;6.934;2023-04-27T11:10:58;98402.25;;;39.18;13.33
22964;BME280;11648;49.306;6.934;2023-04-27T11:13:25;98394.56;;;39.34;14.51
22964;BME280;11648;49.306;6.934;2023-04-27T11:15:55;98395.91;;;40.14;13.12
22964;BME280;11648;49.306;6.934;2023-04-27T11:18:28;98389.56;;;39.23;13.45
22964;BME280;11648;49.306;6.934;2023-04-27T11:21:24;98396.69;;;38.33;14.64
22964;BME280;11648;49.306;6.934;2023-04-27T11:23:52;98393.38;;;38.23;14.15
22964;BME280;11648;49.306;6.934;2023-04-27T11:26:20;98390.38;;;37.59;15.33
22964;BME280;11648;49.306;6.934;2023-04-27T11:29:07;98386.66;;;38.61;13.87
22964;BME280;11648;49.306;6.934;2023-04-27T11:31:44;98387.66;;;39.24;14.22
22964;BME280;11648;49.306;6.934;2023-04-27T11:34:20;98382.44;;;39.29;14.19
22964;BME280;11648;49.306;6.934;2023-04-27T11:37:01;98383.38;;;39.70;13.26
22964;BME280;11648;49.306;6.934;2023-04-27T11:39:33;98389.28;;;40.02;13.65
22964;BME280;11648;49.306;6.934;2023-04-27T11:42:16;98388.19;;;40.03;13.32
22964;BME280;11648;49.306;6.934;2023-04-27T11:44:57;98395.03;;;38.02;14.85
22964;BME280;11648;49.306;6.934;2023-04-27T11:47:26;98392.41;;;35.51;16.12
22964;BME280;11648;49.306;6.934;2023-04-27T11:49:58;98402.91;;;33.74;17.89
22964;BME280;11648;49.306;6.934;2023-04-27T11:52:34;98397.41;;;34.00;17.46
22964;BME280;11648;49.306;6.934;2023-04-27T11:55:02;98393.00;;;34.65;17.35
22964;BME280;11648;49.306;6.934;2023-04-27T11:57:34;98385.44;;;35.32;16.90
22964;BME280;11648;49.306;6.934;2023-04-27T12:00:03;98388.47;;;36.00;16.29
22964;BME280;11648;49.306;6.934;2023-04-27T12:02:40;98380.31;;;34.89;15.73
22964;BME280;11648;49.306;6.934;2023-04-27T12:05:08;98378.41;;;33.57;17.17
22964;BME280;11648;49.306;6.934;2023-04-27T12:07:35;98373.75;;;31.82;18.21
22964;BME280;11648;49.306;6.934;2023-04-27T12:10:02;98383.66;;;30.52;19.43
22964;BME280;11648;49.306;6.934;2023-04-27T12:12:30;98383.94;;;29.40;20.99
22964;BME280;11648;49.306;6.934;2023-04-27T12:14:56;98388.22;;;27.85;22.33
22964;BME280;11648;49.306;6.934;2023-04-27T12:17:24;98381.22;;;27.82;22.47
22964;BME280;11648;49.306;6.934;2023-04-27T12:19:50;98380.72;;;27.77;22.51
22964;BME280;11648;49.306;6.934;2023-04-27T12:22:18;98381.28;;;28.14;22.74
22964;BME280;11648;49.306;6.934;2023-04-27T12:24:44;98392.19;;;28.24;22.62
22964;BME280;11648;49.306;6.934;2023-04-27T12:27:11;98386.25;;;28.62;22.01
22964;BME280;11648;49.306;6.934;2023-04-27T12:29:38;98381.38;;;28.56;22.53
22964;BME280;11648;49.306;6.934;2023-04-27T12:32:05;98390.31;;;28.35;22.37
22964;BME280;11648;49.306;6.934;2023-04-27T12:34:32;98390.34;;;28.24;23.37
22964;BME280;11648;49.306;6.934;2023-04-27T12:36:59;98386.88;;;28.86;22.46
22964;BME280;11648;49.306;6.934;2023-04-27T12:39:26;98392.44;;;28.53;22.01
22964;BME280;11648;49.306;6.934;2023-04-27T12:41:53;98388.94;;;28.41;22.03
22964;BME280;11648;49.306;6.934;2023-04-27T12:44:19;98389.09;;;27.74;23.53
22964;BME280;11648;49.306;6.934;2023-04-27T12:46:47;98370.78;;;27.56;23.78
22964;BME280;11648;49.306;6.934;2023-04-27T12:49:14;98383.69;;;27.41;23.38
22964;BME280;11648;49.306;6.934;2023-04-27T12:51:41;98385.41;;;27.75;24.13
22964;BME280;11648;49.306;6.934;2023-04-27T12:54:09;98376.63;;;28.05;23.16
22964;BME280;11648;49.306;6.934;2023-04-27T12:56:36;98373.16;;;28.03;23.57
22964;BME280;11648;49.306;6.934;2023-04-27T12:59:03;98379.13;;;28.61;23.10
22964;BME280;11648;49.306;6.934;2023-04-27T13:01:31;98385.59;;;28.49;22.19
22964;BME280;11648;49.306;6.934;2023-04-27T13:04:00;98377.25;;;28.61;22.91
22964;BME280;11648;49.306;6.934;2023-04-27T13:06:28;98371.22;;;28.05;22.88
22964;BME280;11648;49.306;6.934;2023-04-27T13:08:59;98376.97;;;28.75;23.92
22964;BME280;11648;49.306;6.934;2023-04-27T13:11:26;98376.44;;;29.02;22.69
22964;BME280;11648;49.306;6.934;2023-04-27T13:13:53;98373.25;;;28.97;23.12